King of Scandinavia — OVOL2 — position and weather

sailwx.info

Track history (hours):
 
Tides and Currents Weather Stations Pressure Air Temp Water Temp Dewpoint Dewpoint Depression Visibility Wind Speed Wind Dir Waves Ship Positions

King of Scandinavia

Ship's website: http://www.dfds.co.uk/DSW/EN/OnBoard/na/KING.htm

Last reported at 2014-Aug-20 16:32 UTC. Time now 2014-Aug-21 00:29 UTC.
Position N 52°34' E 004°20'.

Length 166 m; beam 27.6 m; draft 6.2 m.

Type: Passenger vessel. MMSI: 220449000.

Date/timePositionNaut miles runAvg speedWind from/ knotsBaromVisibWave heightAir tempDewpointWater temp
2014-Aug-20 16:32N 52°34' E 004°20'1111.6
2014-Aug-20 15:33N 52°28' E 004°35'0 0.0
2014-Aug-20 14:32N 52°28' E 004°35'0 0.0
2014-Aug-20 13:32N 52°28' E 004°35'0 0.0
2014-Aug-20 12:32N 52°28' E 004°35'0 0.0
2014-Aug-20 11:32N 52°28' E 004°35'0 0.0
2014-Aug-20 10:32N 52°28' E 004°35'0 0.0
2014-Aug-20 09:32N 52°28' E 004°35'0 0.0
2014-Aug-20 08:32N 52°28' E 004°35'0 0.0
2014-Aug-20 07:33N 52°28' E 004°35'1212.0
2014-Aug-20 06:34N 52°35' E 004°19'16317.9
2014-Aug-19 21:30N 54°13' E 000°42'1617.5
2014-Aug-19 20:33N 54°23' E 000°20'1717.4
2014-Aug-19 19:33N 54°32' W 000°06'1717.2
2014-Aug-19 18:33N 54°42' W 000°30'1917.2
2014-Aug-19 17:27N 54°52' W 000°58'1617.1
2014-Aug-19 16:31N 55°00' W 001°22'20 2.0
2014-Aug-19 06:32N 54°51' W 000°52'1918.5
2014-Aug-19 05:30N 54°41' W 000°23'1617.3
2014-Aug-19 04:33N 54°31' W 000°01'1716.7
2014-Aug-19 03:33N 54°21' E 000°23'14516.1
2014-Aug-18 18:33N 52°57' E 003°42'1817.7
2014-Aug-18 17:33N 52°44' E 004°03'1717.6
2014-Aug-18 16:33N 52°32' E 004°23'8 7.3
2014-Aug-18 15:24N 52°28' E 004°35'0 0.0
2014-Aug-18 14:27N 52°28' E 004°35'0 0.0
2014-Aug-18 13:33N 52°28' E 004°35'0 0.0
2014-Aug-18 12:27N 52°28' E 004°35'0 0.0
2014-Aug-18 11:33N 52°28' E 004°35'0 0.0
2014-Aug-18 10:33N 52°28' E 004°35'0 0.0
2014-Aug-18 09:30N 52°28' E 004°35'0 0.0
2014-Aug-18 08:30N 52°28' E 004°35'0 0.5
2014-Aug-18 07:33N 52°28' E 004°34'1514.7
2014-Aug-18 06:33N 52°37' E 004°16'1110.9
2014-Aug-18 05:34N 52°45' E 004°02'19717.9
2014-Aug-17 18:34N 54°41' W 000°27'1918.6
2014-Aug-17 17:33N 54°51' W 000°54'2 0.2
2014-Aug-17 06:32N 54°52' W 000°57'1313.5
2014-Aug-17 05:33N 54°45' W 000°38'1414.1
2014-Aug-17 04:33N 54°37' W 000°17'1514.5
2014-Aug-17 03:33N 54°29' E 000°03'1717.0
2014-Aug-17 02:33N 54°20' E 000°28'18516.8
2014-Aug-16 15:32N 52°28' E 004°34'1 0.5
2014-Aug-16 14:26N 52°28' E 004°35'0 0.0
2014-Aug-16 13:32N 52°28' E 004°35'0 0.0
2014-Aug-16 12:32N 52°28' E 004°35'0 0.0
2014-Aug-16 11:26N 52°28' E 004°35'0 0.0
2014-Aug-16 10:32N 52°28' E 004°35'0 0.0
2014-Aug-16 09:26N 52°28' E 004°35'0 0.0
2014-Aug-16 08:32N 52°28' E 004°35'0 0.1
2014-Aug-16 07:31N 52°28' E 004°35'1111.3
2014-Aug-16 06:32N 52°34' E 004°20'238226.7
2014-Aug-16 05:29N 54°54' W 001°06'65 7.3
2014-Aug-15 20:34N 54°19' E 000°29'1919.2
2014-Aug-15 19:34N 54°30' E 000°02'1919.2
2014-Aug-15 18:33N 54°40' W 000°26'1918.6
2014-Aug-15 17:32N 54°50' W 000°55'1818.3
2014-Aug-15 16:32N 54°60' W 001°21'21 2.0
2014-Aug-15 06:06N 54°49' W 000°49'916.0
2014-Aug-15 05:33N 54°44' W 000°36'1616.2
2014-Aug-15 04:33N 54°35' W 000°13'1717.0
2014-Aug-15 03:33N 54°26' E 000°11'1818.1
2014-Aug-15 02:33N 54°16' E 000°37'17216.5
2014-Aug-14 16:08N 52°32' E 004°25'710.1
2014-Aug-14 15:26N 52°28' E 004°35'0 0.0
2014-Aug-14 14:29N 52°28' E 004°35'0 0.0
2014-Aug-14 13:32N 52°28' E 004°35'0 0.0
2014-Aug-14 12:32N 52°28' E 004°35'0 0.0
2014-Aug-14 11:26N 52°28' E 004°35'0 0.0
2014-Aug-14 10:29N 52°28' E 004°35'0 0.0
2014-Aug-14 09:29N 52°28' E 004°35'0 0.0
2014-Aug-14 08:32N 52°28' E 004°35'0 0.0
2014-Aug-14 07:33N 52°28' E 004°35'1111.1
2014-Aug-14 06:33N 52°34' E 004°20'225201.6
2014-Aug-14 05:26N 54°47' W 000°46'70 8.8
2014-Aug-13 21:30N 54°09' E 000°54'1819.0
2014-Aug-13 20:33N 54°19' E 000°29'1919.2
2014-Aug-13 19:34N 54°29' E 000°01'1919.4
2014-Aug-13 18:34N 54°40' W 000°26'2019.4
2014-Aug-13 17:33N 54°50' W 000°56'21 1.8
2014-Aug-13 05:25N 54°39' W 000°24'1315.5
2014-Aug-13 04:33N 54°32' W 000°05'1615.8
2014-Aug-13 03:33N 54°23' E 000°18'1716.5
2014-Aug-13 02:33N 54°14' E 000°42'15116.8
2014-Aug-12 17:33N 52°43' E 004°04'1817.7
2014-Aug-12 16:33N 52°31' E 004°26'6 6.1
2014-Aug-12 15:31N 52°28' E 004°35'0 0.0
2014-Aug-12 14:28N 52°28' E 004°35'0 0.0
2014-Aug-12 13:31N 52°28' E 004°35'0 0.0
2014-Aug-12 12:19N 52°28' E 004°35'0 0.0
2014-Aug-12 11:31N 52°28' E 004°35'0 0.0
2014-Aug-12 10:31N 52°28' E 004°35'0 0.0
2014-Aug-12 09:25N 52°28' E 004°35'0 0.0
2014-Aug-12 08:31N 52°28' E 004°35'0 0.0
2014-Aug-12 07:33N 52°28' E 004°35'1111.3
2014-Aug-12 06:33N 52°34' E 004°20'1717.2
2014-Aug-12 05:33N 52°45' E 003°58'14116.8
2014-Aug-11 21:07N 54°11' E 000°50'1017.5
2014-Aug-11 20:33N 54°17' E 000°36'1817.8
2014-Aug-11 19:33N 54°26' E 000°10'1818.5
2014-Aug-11 18:34N 54°37' W 000°17'1919.3
2014-Aug-11 17:34N 54°47' W 000°45'2019.0
2014-Aug-11 16:31N 54°57' W 001°14'16 1.6
2014-Aug-11 06:33N 54°46' W 000°53'2117.6
2014-Aug-11 05:22N 54°32' W 000°27'1416.8
2014-Aug-11 04:34N 54°22' W 000°11'1616.4
2014-Aug-11 03:34N 54°09' E 000°07'1615.5
2014-Aug-11 02:33N 53°58' E 000°24'6817.0
2014-Aug-10 22:33N 53°01' E 001°28'1818.4
2014-Aug-10 21:33N 52°49' E 001°51'8516.9
2014-Aug-10 16:33N 52°32' E 004°08'  
Track history (hours):
 
Tides and Currents Weather Stations Pressure Air Temp Water Temp Dewpoint Dewpoint Depression Visibility Wind Speed Wind Dir Waves Ship Positions

King of Scandinavia

Ship's website: http://www.dfds.co.uk/DSW/EN/OnBoard/na/KING.htm

Last reported at 2014-Aug-20 16:32 UTC. Time now 2014-Aug-21 00:29 UTC.
Position N 52°34' E 004°20'.

Length 166 m; beam 27.6 m; draft 6.2 m.

Type: Passenger vessel. MMSI: 220449000.

Date/timePositionNaut miles runAvg speedWind from/ knotsBaromVisibWave heightAir tempDewpointWater temp
2014-Aug-20 16:32N 52°34' E 004°20'1111.6
2014-Aug-20 15:33N 52°28' E 004°35'0 0.0
2014-Aug-20 14:32N 52°28' E 004°35'0 0.0
2014-Aug-20 13:32N 52°28' E 004°35'0 0.0
2014-Aug-20 12:32N 52°28' E 004°35'0 0.0
2014-Aug-20 11:32N 52°28' E 004°35'0 0.0
2014-Aug-20 10:32N 52°28' E 004°35'0 0.0
2014-Aug-20 09:32N 52°28' E 004°35'0 0.0
2014-Aug-20 08:32N 52°28' E 004°35'0 0.0
2014-Aug-20 07:33N 52°28' E 004°35'1212.0
2014-Aug-20 06:34N 52°35' E 004°19'16317.9
2014-Aug-19 21:30N 54°13' E 000°42'1617.5
2014-Aug-19 20:33N 54°23' E 000°20'1717.4
2014-Aug-19 19:33N 54°32' W 000°06'1717.2
2014-Aug-19 18:33N 54°42' W 000°30'1917.2
2014-Aug-19 17:27N 54°52' W 000°58'1617.1
2014-Aug-19 16:31N 55°00' W 001°22'20 2.0
2014-Aug-19 06:32N 54°51' W 000°52'1918.5
2014-Aug-19 05:30N 54°41' W 000°23'1617.3
2014-Aug-19 04:33N 54°31' W 000°01'1716.7
2014-Aug-19 03:33N 54°21' E 000°23'14516.1
2014-Aug-18 18:33N 52°57' E 003°42'1817.7
2014-Aug-18 17:33N 52°44' E 004°03'1717.6
2014-Aug-18 16:33N 52°32' E 004°23'8 7.3
2014-Aug-18 15:24N 52°28' E 004°35'0 0.0
2014-Aug-18 14:27N 52°28' E 004°35'0 0.0
2014-Aug-18 13:33N 52°28' E 004°35'0 0.0
2014-Aug-18 12:27N 52°28' E 004°35'0 0.0
2014-Aug-18 11:33N 52°28' E 004°35'0 0.0
2014-Aug-18 10:33N 52°28' E 004°35'0 0.0
2014-Aug-18 09:30N 52°28' E 004°35'0 0.0
2014-Aug-18 08:30N 52°28' E 004°35'0 0.5
2014-Aug-18 07:33N 52°28' E 004°34'1514.7
2014-Aug-18 06:33N 52°37' E 004°16'1110.9
2014-Aug-18 05:34N 52°45' E 004°02'19717.9
2014-Aug-17 18:34N 54°41' W 000°27'1918.6
2014-Aug-17 17:33N 54°51' W 000°54'2 0.2
2014-Aug-17 06:32N 54°52' W 000°57'1313.5
2014-Aug-17 05:33N 54°45' W 000°38'1414.1
2014-Aug-17 04:33N 54°37' W 000°17'1514.5
2014-Aug-17 03:33N 54°29' E 000°03'1717.0
2014-Aug-17 02:33N 54°20' E 000°28'18516.8
2014-Aug-16 15:32N 52°28' E 004°34'1 0.5
2014-Aug-16 14:26N 52°28' E 004°35'0 0.0
2014-Aug-16 13:32N 52°28' E 004°35'0 0.0
2014-Aug-16 12:32N 52°28' E 004°35'0 0.0
2014-Aug-16 11:26N 52°28' E 004°35'0 0.0
2014-Aug-16 10:32N 52°28' E 004°35'0 0.0
2014-Aug-16 09:26N 52°28' E 004°35'0 0.0
2014-Aug-16 08:32N 52°28' E 004°35'0 0.1
2014-Aug-16 07:31N 52°28' E 004°35'1111.3
2014-Aug-16 06:32N 52°34' E 004°20'238226.7
2014-Aug-16 05:29N 54°54' W 001°06'65 7.3
2014-Aug-15 20:34N 54°19' E 000°29'1919.2
2014-Aug-15 19:34N 54°30' E 000°02'1919.2
2014-Aug-15 18:33N 54°40' W 000°26'1918.6
2014-Aug-15 17:32N 54°50' W 000°55'1818.3
2014-Aug-15 16:32N 54°60' W 001°21'21 2.0
2014-Aug-15 06:06N 54°49' W 000°49'916.0
2014-Aug-15 05:33N 54°44' W 000°36'1616.2
2014-Aug-15 04:33N 54°35' W 000°13'1717.0
2014-Aug-15 03:33N 54°26' E 000°11'1818.1
2014-Aug-15 02:33N 54°16' E 000°37'17216.5
2014-Aug-14 16:08N 52°32' E 004°25'710.1
2014-Aug-14 15:26N 52°28' E 004°35'0 0.0
2014-Aug-14 14:29N 52°28' E 004°35'0 0.0
2014-Aug-14 13:32N 52°28' E 004°35'0 0.0
2014-Aug-14 12:32N 52°28' E 004°35'0 0.0
2014-Aug-14 11:26N 52°28' E 004°35'0 0.0
2014-Aug-14 10:29N 52°28' E 004°35'0 0.0
2014-Aug-14 09:29N 52°28' E 004°35'0 0.0
2014-Aug-14 08:32N 52°28' E 004°35'0 0.0
2014-Aug-14 07:33N 52°28' E 004°35'1111.1
2014-Aug-14 06:33N 52°34' E 004°20'225201.6
2014-Aug-14 05:26N 54°47' W 000°46'70 8.8
2014-Aug-13 21:30N 54°09' E 000°54'1819.0
2014-Aug-13 20:33N 54°19' E 000°29'1919.2
2014-Aug-13 19:34N 54°29' E 000°01'1919.4
2014-Aug-13 18:34N 54°40' W 000°26'2019.4
2014-Aug-13 17:33N 54°50' W 000°56'21 1.8
2014-Aug-13 05:25N 54°39' W 000°24'1315.5
2014-Aug-13 04:33N 54°32' W 000°05'1615.8
2014-Aug-13 03:33N 54°23' E 000°18'1716.5
2014-Aug-13 02:33N 54°14' E 000°42'15116.8
2014-Aug-12 17:33N 52°43' E 004°04'1817.7
2014-Aug-12 16:33N 52°31' E 004°26'6 6.1
2014-Aug-12 15:31N 52°28' E 004°35'0 0.0
2014-Aug-12 14:28N 52°28' E 004°35'0 0.0
2014-Aug-12 13:31N 52°28' E 004°35'0 0.0
2014-Aug-12 12:19N 52°28' E 004°35'0 0.0
2014-Aug-12 11:31N 52°28' E 004°35'0 0.0
2014-Aug-12 10:31N 52°28' E 004°35'0 0.0
2014-Aug-12 09:25N 52°28' E 004°35'0 0.0
2014-Aug-12 08:31N 52°28' E 004°35'0 0.0
2014-Aug-12 07:33N 52°28' E 004°35'1111.3
2014-Aug-12 06:33N 52°34' E 004°20'1717.2
2014-Aug-12 05:33N 52°45' E 003°58'14116.8
2014-Aug-11 21:07N 54°11' E 000°50'1017.5
2014-Aug-11 20:33N 54°17' E 000°36'1817.8
2014-Aug-11 19:33N 54°26' E 000°10'1818.5
2014-Aug-11 18:34N 54°37' W 000°17'1919.3
2014-Aug-11 17:34N 54°47' W 000°45'2019.0
2014-Aug-11 16:31N 54°57' W 001°14'16 1.6
2014-Aug-11 06:33N 54°46' W 000°53'2117.6
2014-Aug-11 05:22N 54°32' W 000°27'1416.8
2014-Aug-11 04:34N 54°22' W 000°11'1616.4
2014-Aug-11 03:34N 54°09' E 000°07'1615.5
2014-Aug-11 02:33N 53°58' E 000°24'6817.0
2014-Aug-10 22:33N 53°01' E 001°28'1818.4
2014-Aug-10 21:33N 52°49' E 001°51'8516.9
2014-Aug-10 16:33N 52°32' E 004°08'  

Dump ship's entire track history